Terminal Aerodrome Forecast
Issued by NWS Jacksonville, FL

Home | Current Version | Previous Version | Text Only | Print | Product List | Glossary On
Versions: 1 2 3 4 5 6 7 8 9 10 11 12 13 14 15 16 17 18 19 20 21 22
914
FTUS42 KJAX 031912 AAA
TAFJAX
TAF AMD
KJAX 031912Z 0319/0418 26012G16KT P6SM FEW045 SCT250
     FM032300 22012KT P6SM VCTS FEW025 BKN040CB
     FM040100 23005KT P6SM SCT040 BKN120
     FM040600 25007KT P6SM VCSH SCT030 BKN090
     FM040900 27009KT P6SM VCTS FEW015 SCT025CB BKN035
      TEMPO 0409/0413 5SM SHRA SCT015 BKN025
     FM041500 29010KT P6SM SCT025 OVC050=

USA.gov is the U.S. government's official web portal to all federal, state and local government web resources and services.